sensor_id;sensor_type;location;lat;lon;timestamp;pressure;altitude;pressure_sealevel;temperature;humidity
12626;BME280;6378;42.684;23.372;2022-09-27T00:01:31;94228.97;;;15.83;100.00
12626;BME280;6378;42.684;23.372;2022-09-27T00:03:57;94237.91;;;15.84;100.00
12626;BME280;6378;42.684;23.372;2022-09-27T00:06:27;94208.56;;;15.65;100.00
12626;BME280;6378;42.684;23.372;2022-09-27T00:08:53;94212.47;;;15.60;100.00
12626;BME280;6378;42.684;23.372;2022-09-27T00:11:24;94227.19;;;15.59;100.00
12626;BME280;6378;42.684;23.372;2022-09-27T00:13:50;94239.63;;;15.56;100.00
12626;BME280;6378;42.684;23.372;2022-09-27T00:16:15;94230.34;;;15.54;100.00
12626;BME280;6378;42.684;23.372;2022-09-27T00:18:41;94215.63;;;15.44;100.00
12626;BME280;6378;42.684;23.372;2022-09-27T00:21:12;94227.31;;;15.31;100.00
12626;BME280;6378;42.684;23.372;2022-09-27T00:23:38;94243.22;;;15.29;100.00
12626;BME280;6378;42.684;23.372;2022-09-27T00:26:05;94232.03;;;15.16;100.00
12626;BME280;6378;42.684;23.372;2022-09-27T00:28:31;94251.75;;;15.20;100.00
12626;BME280;6378;42.684;23.372;2022-09-27T00:30:57;94262.19;;;15.29;100.00
12626;BME280;6378;42.684;23.372;2022-09-27T00:33:24;94228.13;;;15.24;100.00
12626;BME280;6378;42.684;23.372;2022-09-27T00:35:49;94252.13;;;15.29;100.00
12626;BME280;6378;42.684;23.372;2022-09-27T00:38:16;94255.59;;;15.30;100.00
12626;BME280;6378;42.684;23.372;2022-09-27T00:40:42;94237.44;;;15.16;100.00
12626;BME280;6378;42.684;23.372;2022-09-27T00:43:19;94235.09;;;15.22;100.00
12626;BME280;6378;42.684;23.372;2022-09-27T00:45:52;94229.31;;;15.20;100.00
12626;BME280;6378;42.684;23.372;2022-09-27T00:48:23;94228.59;;;15.08;100.00
12626;BME280;6378;42.684;23.372;2022-09-27T00:50:55;94222.72;;;15.17;100.00
12626;BME280;6378;42.684;23.372;2022-09-27T00:53:43;94236.28;;;15.24;100.00
12626;BME280;6378;42.684;23.372;2022-09-27T00:56:16;94226.59;;;15.23;100.00
12626;BME280;6378;42.684;23.372;2022-09-27T00:58:51;94201.56;;;14.84;100.00
12626;BME280;6378;42.684;23.372;2022-09-27T01:01:21;94198.41;;;14.96;100.00
12626;BME280;6378;42.684;23.372;2022-09-27T01:04:04;94222.00;;;15.09;100.00
12626;BME280;6378;42.684;23.372;2022-09-27T01:06:31;94225.13;;;15.04;100.00
12626;BME280;6378;42.684;23.372;2022-09-27T01:08:56;94232.09;;;14.91;100.00
12626;BME280;6378;42.684;23.372;2022-09-27T01:21:58;94230.56;;;14.97;100.00
12626;BME280;6378;42.684;23.372;2022-09-27T01:24:55;94212.34;;;15.01;100.00
12626;BME280;6378;42.684;23.372;2022-09-27T01:30:22;94227.13;;;14.79;100.00
12626;BME280;6378;42.684;23.372;2022-09-27T01:44:03;94239.91;;;14.68;100.00
12626;BME280;6378;42.684;23.372;2022-09-27T01:46:39;94212.84;;;14.68;100.00
12626;BME280;6378;42.684;23.372;2022-09-27T01:49:20;94205.47;;;14.72;100.00
12626;BME280;6378;42.684;23.372;2022-09-27T01:51:59;94181.09;;;14.68;100.00
12626;BME280;6378;42.684;23.372;2022-09-27T01:54:42;94202.69;;;14.93;100.00
12626;BME280;6378;42.684;23.372;2022-09-27T01:57:10;94223.97;;;14.91;100.00
12626;BME280;6378;42.684;23.372;2022-09-27T01:59:46;94220.50;;;14.94;100.00
12626;BME280;6378;42.684;23.372;2022-09-27T02:02:15;94218.91;;;15.07;100.00
12626;BME280;6378;42.684;23.372;2022-09-27T02:04:43;94212.69;;;15.10;100.00
12626;BME280;6378;42.684;23.372;2022-09-27T02:07:57;94201.03;;;15.21;100.00
12626;BME280;6378;42.684;23.372;2022-09-27T02:10:24;94208.78;;;15.15;100.00
12626;BME280;6378;42.684;23.372;2022-09-27T02:13:04;94211.88;;;15.21;100.00
12626;BME280;6378;42.684;23.372;2022-09-27T02:15:49;94180.13;;;15.17;100.00
12626;BME280;6378;42.684;23.372;2022-09-27T02:18:22;94185.22;;;15.08;100.00
12626;BME280;6378;42.684;23.372;2022-09-27T02:20:53;94159.31;;;15.04;100.00
12626;BME280;6378;42.684;23.372;2022-09-27T02:26:25;94174.47;;;14.87;100.00
12626;BME280;6378;42.684;23.372;2022-09-27T02:31:32;94117.31;;;14.60;100.00
12626;BME280;6378;42.684;23.372;2022-09-27T02:34:01;94144.28;;;14.82;100.00
12626;BME280;6378;42.684;23.372;2022-09-27T02:36:28;94129.25;;;14.66;100.00
12626;BME280;6378;42.684;23.372;2022-09-27T02:38:55;94144.75;;;14.66;100.00
12626;BME280;6378;42.684;23.372;2022-09-27T02:41:21;94125.81;;;14.59;100.00
12626;BME280;6378;42.684;23.372;2022-09-27T02:43:51;94113.03;;;14.63;100.00
12626;BME280;6378;42.684;23.372;2022-09-27T02:50:03;94139.75;;;14.61;100.00
12626;BME280;6378;42.684;23.372;2022-09-27T02:55:25;94146.28;;;14.70;100.00
12626;BME280;6378;42.684;23.372;2022-09-27T03:00:52;94152.81;;;14.80;100.00
12626;BME280;6378;42.684;23.372;2022-09-27T03:03:25;94167.50;;;14.86;100.00
12626;BME280;6378;42.684;23.372;2022-09-27T03:06:00;94168.63;;;14.92;100.00
12626;BME280;6378;42.684;23.372;2022-09-27T03:08:27;94141.53;;;14.99;100.00
12626;BME280;6378;42.684;23.372;2022-09-27T03:10:53;94110.19;;;14.91;100.00
12626;BME280;6378;42.684;23.372;2022-09-27T03:13:18;94095.13;;;14.87;100.00
12626;BME280;6378;42.684;23.372;2022-09-27T03:15:43;94105.19;;;14.90;100.00
12626;BME280;6378;42.684;23.372;2022-09-27T03:18:09;94093.19;;;14.87;100.00
12626;BME280;6378;42.684;23.372;2022-09-27T03:20:34;94066.97;;;14.63;100.00
12626;BME280;6378;42.684;23.372;2022-09-27T03:23:00;94081.97;;;14.85;100.00
12626;BME280;6378;42.684;23.372;2022-09-27T03:25:25;94077.38;;;14.79;100.00
12626;BME280;6378;42.684;23.372;2022-09-27T03:27:51;94065.38;;;14.76;100.00
12626;BME280;6378;42.684;23.372;2022-09-27T03:30:16;94071.59;;;14.73;100.00
12626;BME280;6378;42.684;23.372;2022-09-27T03:32:43;94049.63;;;14.53;100.00
12626;BME280;6378;42.684;23.372;2022-09-27T03:35:09;94072.75;;;14.68;100.00
12626;BME280;6378;42.684;23.372;2022-09-27T03:37:35;94080.09;;;14.71;100.00
12626;BME280;6378;42.684;23.372;2022-09-27T03:40:01;94087.44;;;14.74;100.00
12626;BME280;6378;42.684;23.372;2022-09-27T03:42:26;94077.38;;;14.79;100.00
12626;BME280;6378;42.684;23.372;2022-09-27T03:44:52;94070.34;;;14.88;100.00
12626;BME280;6378;42.684;23.372;2022-09-27T03:47:17;94082.25;;;15.01;100.00
12626;BME280;6378;42.684;23.372;2022-09-27T03:49:43;94086.09;;;15.07;100.00
12626;BME280;6378;42.684;23.372;2022-09-27T03:52:09;94083.41;;;15.00;100.00
12626;BME280;6378;42.684;23.372;2022-09-27T03:54:34;94078.00;;;15.04;100.00
12626;BME280;6378;42.684;23.372;2022-09-27T03:57:00;94076.06;;;15.04;100.00
12626;BME280;6378;42.684;23.372;2022-09-27T03:59:25;94075.72;;;14.99;100.00
12626;BME280;6378;42.684;23.372;2022-09-27T04:01:50;94065.66;;;14.96;100.00
12626;BME280;6378;42.684;23.372;2022-09-27T04:04:16;94067.88;;;15.11;100.00
12626;BME280;6378;42.684;23.372;2022-09-27T04:06:42;94083.41;;;15.07;100.00
12626;BME280;6378;42.684;23.372;2022-09-27T04:09:08;94085.97;;;15.25;100.00
12626;BME280;6378;42.684;23.372;2022-09-27T04:11:33;94085.22;;;15.25;100.00
12626;BME280;6378;42.684;23.372;2022-09-27T04:13:59;94087.94;;;15.25;100.00
12626;BME280;6378;42.684;23.372;2022-09-27T04:16:24;94082.53;;;15.25;100.00
12626;BME280;6378;42.684;23.372;2022-09-27T04:18:50;94066.72;;;15.12;100.00
12626;BME280;6378;42.684;23.372;2022-09-27T04:21:16;94074.03;;;15.19;100.00
12626;BME280;6378;42.684;23.372;2022-09-27T04:23:41;94064.28;;;15.29;100.00
12626;BME280;6378;42.684;23.372;2022-09-27T04:26:08;94055.81;;;15.23;100.00
12626;BME280;6378;42.684;23.372;2022-09-27T04:28:33;94063.91;;;15.27;100.00
12626;BME280;6378;42.684;23.372;2022-09-27T04:30:59;94076.66;;;15.33;100.00
12626;BME280;6378;42.684;23.372;2022-09-27T04:33:24;94070.06;;;15.31;100.00
12626;BME280;6378;42.684;23.372;2022-09-27T04:35:50;94076.69;;;15.26;100.00
12626;BME280;6378;42.684;23.372;2022-09-27T04:38:34;94084.34;;;15.38;100.00
12626;BME280;6378;42.684;23.372;2022-09-27T04:41:00;94077.75;;;15.43;100.00
12626;BME280;6378;42.684;23.372;2022-09-27T04:43:26;94075.03;;;15.43;100.00
12626;BME280;6378;42.684;23.372;2022-09-27T04:45:52;94078.13;;;15.41;100.00
12626;BME280;6378;42.684;23.372;2022-09-27T04:48:17;94070.72;;;15.49;100.00
12626;BME280;6378;42.684;23.372;2022-09-27T04:50:43;94076.16;;;15.45;100.00
12626;BME280;6378;42.684;23.372;2022-09-27T04:53:13;94086.22;;;15.45;100.00
12626;BME280;6378;42.684;23.372;2022-09-27T04:55:39;94081.97;;;15.47;100.00
12626;BME280;6378;42.684;23.372;2022-09-27T04:58:04;94077.75;;;15.43;100.00
12626;BME280;6378;42.684;23.372;2022-09-27T05:00:30;94102.53;;;15.41;100.00
12626;BME280;6378;42.684;23.372;2022-09-27T05:02:56;94104.44;;;15.48;100.00
12626;BME280;6378;42.684;23.372;2022-09-27T05:05:21;94093.94;;;15.57;100.00
12626;BME280;6378;42.684;23.372;2022-09-27T05:07:47;94084.25;;;15.56;100.00
12626;BME280;6378;42.684;23.372;2022-09-27T05:10:12;94074.59;;;15.51;100.00
12626;BME280;6378;42.684;23.372;2022-09-27T05:12:38;94075.28;;;15.59;100.00
12626;BME280;6378;42.684;23.372;2022-09-27T05:15:04;94068.75;;;15.49;100.00
12626;BME280;6378;42.684;23.372;2022-09-27T05:17:29;94052.13;;;15.47;100.00
12626;BME280;6378;42.684;23.372;2022-09-27T05:19:55;94052.91;;;15.48;100.00
12626;BME280;6378;42.684;23.372;2022-09-27T05:22:20;94049.03;;;15.49;100.00
12626;BME280;6378;42.684;23.372;2022-09-27T05:24:46;94066.13;;;15.42;100.00
12626;BME280;6378;42.684;23.372;2022-09-27T05:27:14;94071.97;;;15.37;100.00
12626;BME280;6378;42.684;23.372;2022-09-27T05:29:43;94068.50;;;15.33;100.00
12626;BME280;6378;42.684;23.372;2022-09-27T05:32:08;94053.81;;;15.31;100.00
12626;BME280;6378;42.684;23.372;2022-09-27T05:34:34;94047.63;;;15.27;100.00
12626;BME280;6378;42.684;23.372;2022-09-27T05:36:59;94044.88;;;15.34;100.00
12626;BME280;6378;42.684;23.372;2022-09-27T05:39:25;94057.59;;;15.44;100.00
12626;BME280;6378;42.684;23.372;2022-09-27T05:41:50;94062.25;;;15.40;100.00
12626;BME280;6378;42.684;23.372;2022-09-27T05:44:16;94071.91;;;15.44;100.00
12626;BME280;6378;42.684;23.372;2022-09-27T05:46:42;94078.78;;;15.63;100.00
12626;BME280;6378;42.684;23.372;2022-09-27T05:49:08;94072.75;;;15.38;100.00
12626;BME280;6378;42.684;23.372;2022-09-27T05:51:33;94064.19;;;15.43;100.00
12626;BME280;6378;42.684;23.372;2022-09-27T05:53:59;94061.97;;;15.27;100.00
12626;BME280;6378;42.684;23.372;2022-09-27T05:56:25;94062.00;;;15.24;100.00
12626;BME280;6378;42.684;23.372;2022-09-27T05:58:50;94067.78;;;15.26;100.00
12626;BME280;6378;42.684;23.372;2022-09-27T06:01:16;94072.00;;;15.34;100.00
12626;BME280;6378;42.684;23.372;2022-09-27T06:03:42;94068.38;;;15.54;100.00
12626;BME280;6378;42.684;23.372;2022-09-27T06:06:08;94075.72;;;15.50;100.00
12626;BME280;6378;42.684;23.372;2022-09-27T06:08:36;94079.97;;;15.58;100.00
12626;BME280;6378;42.684;23.372;2022-09-27T06:11:07;94081.09;;;15.61;100.00
12626;BME280;6378;42.684;23.372;2022-09-27T06:13:33;94076.06;;;15.59;100.00
12626;BME280;6378;42.684;23.372;2022-09-27T06:16:00;94056.00;;;15.46;100.00
12626;BME280;6378;42.684;23.372;2022-09-27T06:18:26;94050.63;;;15.43;100.00
12626;BME280;6378;42.684;23.372;2022-09-27T06:20:51;94079.59;;;15.56;100.00
12626;BME280;6378;42.684;23.372;2022-09-27T06:23:18;94079.19;;;15.58;100.00
12626;BME280;6378;42.684;23.372;2022-09-27T06:25:45;94064.78;;;15.65;100.00
12626;BME280;6378;42.684;23.372;2022-09-27T06:28:14;94069.00;;;15.73;100.00
12626;BME280;6378;42.684;23.372;2022-09-27T06:30:44;94035.81;;;15.54;100.00
12626;BME280;6378;42.684;23.372;2022-09-27T06:33:13;94075.94;;;15.77;100.00
12626;BME280;6378;42.684;23.372;2022-09-27T06:35:39;94069.31;;;15.82;100.00
12626;BME280;6378;42.684;23.372;2022-09-27T06:38:07;94050.28;;;15.85;100.00
12626;BME280;6378;42.684;23.372;2022-09-27T06:40:35;94055.41;;;15.76;100.00
12626;BME280;6378;42.684;23.372;2022-09-27T06:43:11;94078.88;;;15.93;100.00
12626;BME280;6378;42.684;23.372;2022-09-27T06:45:37;94071.97;;;15.85;100.00
12626;BME280;6378;42.684;23.372;2022-09-27T06:48:05;94072.06;;;15.75;100.00
12626;BME280;6378;42.684;23.372;2022-09-27T06:50:35;94067.06;;;15.73;100.00
12626;BME280;6378;42.684;23.372;2022-09-27T06:53:05;94078.34;;;15.68;100.00
12626;BME280;6378;42.684;23.372;2022-09-27T06:55:31;94059.06;;;15.55;100.00
12626;BME280;6378;42.684;23.372;2022-09-27T06:57:58;94082.16;;;15.78;100.00
12626;BME280;6378;42.684;23.372;2022-09-27T07:00:43;94070.44;;;15.84;100.00
12626;BME280;6378;42.684;23.372;2022-09-27T07:03:11;94056.22;;;15.73;100.00
12626;BME280;6378;42.684;23.372;2022-09-27T07:05:39;94034.41;;;15.36;100.00
12626;BME280;6378;42.684;23.372;2022-09-27T07:08:07;94074.56;;;15.55;100.00
12626;BME280;6378;42.684;23.372;2022-09-27T07:10:35;94065.69;;;15.47;100.00
12626;BME280;6378;42.684;23.372;2022-09-27T07:13:05;94080.94;;;15.79;100.00
12626;BME280;6378;42.684;23.372;2022-09-27T07:15:32;94073.16;;;15.84;100.00
12626;BME280;6378;42.684;23.372;2022-09-27T07:18:00;94074.66;;;15.89;100.00
12626;BME280;6378;42.684;23.372;2022-09-27T07:20:26;94088.06;;;16.07;100.00
12626;BME280;6378;42.684;23.372;2022-09-27T07:22:54;94078.72;;;16.11;100.00
12626;BME280;6378;42.684;23.372;2022-09-27T07:25:20;94081.41;;;16.15;100.00
12626;BME280;6378;42.684;23.372;2022-09-27T07:27:45;94070.16;;;16.13;100.00
12626;BME280;6378;42.684;23.372;2022-09-27T07:30:11;94034.25;;;15.98;100.00
12626;BME280;6378;42.684;23.372;2022-09-27T07:32:37;94074.78;;;16.16;100.00
12626;BME280;6378;42.684;23.372;2022-09-27T07:35:03;94082.50;;;16.21;100.00
12626;BME280;6378;42.684;23.372;2022-09-27T07:37:36;94076.97;;;16.28;100.00
12626;BME280;6378;42.684;23.372;2022-09-27T07:40:04;94058.13;;;16.14;100.00
12626;BME280;6378;42.684;23.372;2022-09-27T07:42:32;94063.84;;;16.23;100.00
12626;BME280;6378;42.684;23.372;2022-09-27T07:44:57;94086.34;;;16.23;100.00
12626;BME280;6378;42.684;23.372;2022-09-27T07:47:23;94097.09;;;16.34;100.00
12626;BME280;6378;42.684;23.372;2022-09-27T07:49:52;94060.41;;;16.19;100.00
12626;BME280;6378;42.684;23.372;2022-09-27T07:52:18;94116.31;;;16.50;100.00
12626;BME280;6378;42.684;23.372;2022-09-27T07:54:45;94110.03;;;16.57;100.00
12626;BME280;6378;42.684;23.372;2022-09-27T07:57:11;94105.81;;;16.52;100.00
12626;BME280;6378;42.684;23.372;2022-09-27T07:59:38;94103.53;;;16.47;100.00
12626;BME280;6378;42.684;23.372;2022-09-27T08:02:03;94065.28;;;16.34;100.00
12626;BME280;6378;42.684;23.372;2022-09-27T08:04:28;94100.03;;;16.50;100.00
12626;BME280;6378;42.684;23.372;2022-09-27T08:06:54;94068.31;;;16.40;100.00
12626;BME280;6378;42.684;23.372;2022-09-27T08:09:20;94077.25;;;16.40;100.00
12626;BME280;6378;42.684;23.372;2022-09-27T08:11:45;94082.31;;;16.38;100.00
12626;BME280;6378;42.684;23.372;2022-09-27T08:14:11;94074.59;;;16.33;100.00
12626;BME280;6378;42.684;23.372;2022-09-27T08:16:37;94065.22;;;16.41;100.00
12626;BME280;6378;42.684;23.372;2022-09-27T08:19:02;94068.28;;;16.43;100.00
12626;BME280;6378;42.684;23.372;2022-09-27T08:21:28;94066.00;;;16.38;100.00
12626;BME280;6378;42.684;23.372;2022-09-27T08:23:55;94068.31;;;16.40;100.00
12626;BME280;6378;42.684;23.372;2022-09-27T08:26:21;94071.75;;;16.44;100.00
12626;BME280;6378;42.684;23.372;2022-09-27T08:28:47;94083.63;;;16.57;100.00
12626;BME280;6378;42.684;23.372;2022-09-27T08:31:13;94078.19;;;16.57;100.00
12626;BME280;6378;42.684;23.372;2022-09-27T08:33:38;94084.41;;;16.61;100.00
12626;BME280;6378;42.684;23.372;2022-09-27T08:36:04;94074.22;;;16.69;100.00
12626;BME280;6378;42.684;23.372;2022-09-27T08:38:34;94060.59;;;16.72;100.00
12626;BME280;6378;42.684;23.372;2022-09-27T08:41:13;94058.09;;;16.85;100.00
12626;BME280;6378;42.684;23.372;2022-09-27T08:43:51;94051.97;;;17.08;100.00
12626;BME280;6378;42.684;23.372;2022-09-27T08:49:22;94046.22;;;17.29;100.00
12626;BME280;6378;42.684;23.372;2022-09-27T08:51:52;94034.03;;;17.37;100.00
12626;BME280;6378;42.684;23.372;2022-09-27T08:54:27;94045.88;;;17.50;100.00
12626;BME280;6378;42.684;23.372;2022-09-27T08:57:00;94037.22;;;17.59;100.00
12626;BME280;6378;42.684;23.372;2022-09-27T08:59:36;94052.84;;;17.51;100.00
12626;BME280;6378;42.684;23.372;2022-09-27T09:02:04;94042.25;;;17.60;100.00
12626;BME280;6378;42.684;23.372;2022-09-27T09:04:39;94016.31;;;17.52;100.00
12626;BME280;6378;42.684;23.372;2022-09-27T09:10:04;94026.63;;;17.88;100.00
12626;BME280;6378;42.684;23.372;2022-09-27T09:21:08;94010.75;;;18.45;100.00
12626;BME280;6378;42.684;23.372;2022-09-27T09:26:20;94006.78;;;18.30;100.00
12626;BME280;6378;42.684;23.372;2022-09-27T09:28:55;94000.75;;;18.19;100.00
12626;BME280;6378;42.684;23.372;2022-09-27T09:31:43;94010.63;;;18.13;100.00
12626;BME280;6378;42.684;23.372;2022-09-27T09:34:43;94014.56;;;18.28;100.00
12626;BME280;6378;42.684;23.372;2022-09-27T09:37:17;94003.34;;;18.26;100.00
12626;BME280;6378;42.684;23.372;2022-09-27T09:39:47;93986.16;;;18.29;100.00
12626;BME280;6378;42.684;23.372;2022-09-27T09:42:24;93986.56;;;18.47;100.00
12626;BME280;6378;42.684;23.372;2022-09-27T09:45:03;93995.19;;;18.66;100.00
12626;BME280;6378;42.684;23.372;2022-09-27T09:47:41;93991.78;;;18.62;100.00
12626;BME280;6378;42.684;23.372;2022-09-27T09:50:21;93985.28;;;18.72;100.00
12626;BME280;6378;42.684;23.372;2022-09-27T09:55:40;93998.75;;;18.98;100.00
12626;BME280;6378;42.684;23.372;2022-09-27T09:58:23;93987.78;;;18.82;100.00
12626;BME280;6378;42.684;23.372;2022-09-27T10:00:53;93984.16;;;18.89;100.00
12626;BME280;6378;42.684;23.372;2022-09-27T10:03:20;93965.47;;;18.87;100.00
12626;BME280;6378;42.684;23.372;2022-09-27T10:05:46;93989.97;;;18.91;100.00
12626;BME280;6378;42.684;23.372;2022-09-27T10:08:17;94002.06;;;18.90;100.00
12626;BME280;6378;42.684;23.372;2022-09-27T10:10:44;93992.84;;;18.84;100.00
12626;BME280;6378;42.684;23.372;2022-09-27T10:13:14;93992.91;;;18.80;100.00
12626;BME280;6378;42.684;23.372;2022-09-27T10:15:41;93978.34;;;18.71;100.00
12626;BME280;6378;42.684;23.372;2022-09-27T10:18:14;93982.16;;;18.73;100.00
12626;BME280;6378;42.684;23.372;2022-09-27T10:20:51;93998.28;;;18.84;100.00
12626;BME280;6378;42.684;23.372;2022-09-27T10:23:21;93974.69;;;18.93;100.00
12626;BME280;6378;42.684;23.372;2022-09-27T10:25:52;93976.25;;;18.94;100.00
12626;BME280;6378;42.684;23.372;2022-09-27T10:31:01;93955.97;;;19.28;100.00
12626;BME280;6378;42.684;23.372;2022-09-27T10:33:27;93945.47;;;19.26;100.00
12626;BME280;6378;42.684;23.372;2022-09-27T10:35:54;93920.75;;;19.01;100.00
12626;BME280;6378;42.684;23.372;2022-09-27T10:40:57;93959.13;;;19.26;100.00
12626;BME280;6378;42.684;23.372;2022-09-27T10:43:31;93957.16;;;19.27;100.00
12626;BME280;6378;42.684;23.372;2022-09-27T10:48:36;93958.78;;;19.40;100.00
12626;BME280;6378;42.684;23.372;2022-09-27T10:51:05;93961.28;;;19.35;100.00
12626;BME280;6378;42.684;23.372;2022-09-27T10:53:33;93944.66;;;19.29;100.00
12626;BME280;6378;42.684;23.372;2022-09-27T10:56:00;93955.91;;;19.64;100.00
12626;BME280;6378;42.684;23.372;2022-09-27T10:58:29;93950.44;;;19.64;100.00
12626;BME280;6378;42.684;23.372;2022-09-27T11:01:04;93917.16;;;19.69;100.00
12626;BME280;6378;42.684;23.372;2022-09-27T11:03:32;93916.53;;;19.77;100.00
12626;BME280;6378;42.684;23.372;2022-09-27T11:06:28;93907.13;;;20.07;100.00
12626;BME280;6378;42.684;23.372;2022-09-27T11:08:55;93870.38;;;19.96;100.00
12626;BME280;6378;42.684;23.372;2022-09-27T11:11:33;93893.66;;;20.00;100.00
12626;BME280;6378;42.684;23.372;2022-09-27T11:14:21;93897.59;;;19.99;100.00
12626;BME280;6378;42.684;23.372;2022-09-27T11:33:44;93882.09;;;20.09;100.00
12626;BME280;6378;42.684;23.372;2022-09-27T12:09:05;93792.91;;;21.38;100.00
12626;BME280;6378;42.684;23.372;2022-09-27T12:14:19;93764.66;;;21.41;100.00
12626;BME280;6378;42.684;23.372;2022-09-27T12:16:46;93786.28;;;21.91;100.00
12626;BME280;6378;42.684;23.372;2022-09-27T12:19:18;93771.97;;;21.87;100.00
12626;BME280;6378;42.684;23.372;2022-09-27T12:21:48;93768.75;;;22.11;100.00
12626;BME280;6378;42.684;23.372;2022-09-27T12:24:21;93750.19;;;22.15;100.00
12626;BME280;6378;42.684;23.372;2022-09-27T12:26:50;93729.28;;;21.99;100.00
12626;BME280;6378;42.684;23.372;2022-09-27T12:29:25;93749.31;;;22.18;100.00
12626;BME280;6378;42.684;23.372;2022-09-27T12:32:07;93744.38;;;22.43;100.00
12626;BME280;6378;42.684;23.372;2022-09-27T12:34:44;93719.44;;;22.69;100.00
12626;BME280;6378;42.684;23.372;2022-09-27T12:42:49;93689.63;;;22.71;100.00
12626;BME280;6378;42.684;23.372;2022-09-27T12:45:20;93689.78;;;22.95;100.00
12626;BME280;6378;42.684;23.372;2022-09-27T12:50:32;93702.31;;;23.50;100.00
12626;BME280;6378;42.684;23.372;2022-09-27T12:53:25;93688.06;;;23.70;100.00
12626;BME280;6378;42.684;23.372;2022-09-27T12:56:25;93691.66;;;23.85;100.00
12626;BME280;6378;42.684;23.372;2022-09-27T12:59:06;93690.84;;;23.52;99.48
12626;BME280;6378;42.684;23.372;2022-09-27T13:10:14;93708.47;;;23.87;98.39
12626;BME280;6378;42.684;23.372;2022-09-27T13:12:48;93696.44;;;23.85;94.64
12626;BME280;6378;42.684;23.372;2022-09-27T13:15:29;93688.38;;;23.63;95.37
12626;BME280;6378;42.684;23.372;2022-09-27T13:17:56;93704.56;;;23.70;93.48
12626;BME280;6378;42.684;23.372;2022-09-27T13:22:52;93705.78;;;24.11;80.08
12626;BME280;6378;42.684;23.372;2022-09-27T13:26:19;93691.19;;;24.38;76.84
12626;BME280;6378;42.684;23.372;2022-09-27T13:31:01;93690.72;;;24.96;72.17
12626;BME280;6378;42.684;23.372;2022-09-27T13:47:22;93704.22;;;24.85;83.83
12626;BME280;6378;42.684;23.372;2022-09-27T13:49:56;93692.94;;;24.26;91.22
12626;BME280;6378;42.684;23.372;2022-09-27T13:52:33;93712.00;;;24.30;88.64
12626;BME280;6378;42.684;23.372;2022-09-27T13:55:02;93721.94;;;24.60;84.63
12626;BME280;6378;42.684;23.372;2022-09-27T13:57:56;93713.69;;;24.84;77.30
12626;BME280;6378;42.684;23.372;2022-09-27T14:00:27;93712.16;;;24.83;84.23
12626;BME280;6378;42.684;23.372;2022-09-27T14:03:06;93712.56;;;24.43;86.94
12626;BME280;6378;42.684;23.372;2022-09-27T14:06:03;93694.53;;;24.00;92.44
12626;BME280;6378;42.684;23.372;2022-09-27T14:08:45;93694.91;;;23.84;92.23
12626;BME280;6378;42.684;23.372;2022-09-27T14:11:15;93703.63;;;23.73;91.83
12626;BME280;6378;42.684;23.372;2022-09-27T14:13:44;93691.75;;;23.58;92.61
12626;BME280;6378;42.684;23.372;2022-09-27T14:16:14;93688.25;;;23.48;95.50
12626;BME280;6378;42.684;23.372;2022-09-27T14:18:53;93691.28;;;23.32;95.54
12626;BME280;6378;42.684;23.372;2022-09-27T14:21:31;93696.66;;;23.08;99.26
12626;BME280;6378;42.684;23.372;2022-09-27T14:29:42;93685.28;;;21.93;100.00
12626;BME280;6378;42.684;23.372;2022-09-27T14:32:11;93685.03;;;21.79;100.00
12626;BME280;6378;42.684;23.372;2022-09-27T14:34:37;93678.81;;;21.56;100.00
12626;BME280;6378;42.684;23.372;2022-09-27T14:37:03;93656.53;;;21.45;100.00
12626;BME280;6378;42.684;23.372;2022-09-27T14:39:56;93679.22;;;21.46;100.00
12626;BME280;6378;42.684;23.372;2022-09-27T14:42:24;93685.59;;;21.43;100.00
12626;BME280;6378;42.684;23.372;2022-09-27T14:44:51;93695.09;;;21.29;100.00
12626;BME280;6378;42.684;23.372;2022-09-27T14:50:11;93684.22;;;21.04;100.00
12626;BME280;6378;42.684;23.372;2022-09-27T14:52:38;93674.78;;;20.83;100.00
12626;BME280;6378;42.684;23.372;2022-09-27T14:55:18;93681.84;;;20.71;100.00
12626;BME280;6378;42.684;23.372;2022-09-27T14:58:10;93681.44;;;20.60;100.00
12626;BME280;6378;42.684;23.372;2022-09-27T15:00:38;93704.75;;;20.52;100.00
12626;BME280;6378;42.684;23.372;2022-09-27T15:03:19;93704.31;;;20.54;100.00
12626;BME280;6378;42.684;23.372;2022-09-27T15:05:49;93696.66;;;20.49;100.00
12626;BME280;6378;42.684;23.372;2022-09-27T15:08:15;93686.06;;;20.51;100.00
12626;BME280;6378;42.684;23.372;2022-09-27T15:10:43;93700.38;;;20.55;100.00
12626;BME280;6378;42.684;23.372;2022-09-27T15:13:13;93742.38;;;20.36;100.00
12626;BME280;6378;42.684;23.372;2022-09-27T15:15:41;93791.13;;;20.37;100.00
12626;BME280;6378;42.684;23.372;2022-09-27T15:20:54;93836.47;;;18.42;100.00
12626;BME280;6378;42.684;23.372;2022-09-27T15:23:48;93847.50;;;17.99;100.00
12626;BME280;6378;42.684;23.372;2022-09-27T15:26:23;93850.81;;;17.70;100.00
12626;BME280;6378;42.684;23.372;2022-09-27T15:28:50;93900.00;;;17.37;100.00
12626;BME280;6378;42.684;23.372;2022-09-27T15:31:17;93887.22;;;17.33;100.00
12626;BME280;6378;42.684;23.372;2022-09-27T15:33:54;93853.03;;;16.89;100.00
12626;BME280;6378;42.684;23.372;2022-09-27T15:39:15;93892.69;;;17.10;100.00
12626;BME280;6378;42.684;23.372;2022-09-27T15:42:18;93898.94;;;17.07;100.00
12626;BME280;6378;42.684;23.372;2022-09-27T15:44:46;93904.53;;;16.97;100.00
12626;BME280;6378;42.684;23.372;2022-09-27T15:52:47;93873.03;;;16.49;100.00
12626;BME280;6378;42.684;23.372;2022-09-27T15:55:14;93868.84;;;16.44;100.00
12626;BME280;6378;42.684;23.372;2022-09-27T15:57:43;93846.56;;;16.30;100.00
12626;BME280;6378;42.684;23.372;2022-09-27T16:00:13;93878.19;;;16.13;100.00
12626;BME280;6378;42.684;23.372;2022-09-27T16:02:41;93908.22;;;15.99;100.00